Time;durP1;ratioP1;P1;durP2;ratioP2;P2;SDS_P1;SDS_P2;PMS_P1;PMS_P2;Temp;Humidity;BMP_temperature;BMP_pressure;BME280_temperature;BME280_humidity;BME280_pressure;Samples;Min_cycle;Max_cycle;Signal;HPM_P1;HPM_P2
2020/12/07 00:00:58;;;;;;;9.23;7.47;;;11.90;1.00;;;;;;5053906;28;20181;-55
2020/12/07 00:03:24;;;;;;;11.00;8.13;;;11.80;1.00;;;;;;5048283;28;20201;-66
2020/12/07 00:05:50;;;;;;;9.37;8.30;;;11.80;1.00;;;;;;5050622;28;20512;-56
2020/12/07 00:08:15;;;;;;;8.90;7.53;;;11.80;1.00;;;;;;5048919;28;20182;-58
2020/12/07 00:10:41;;;;;;;8.10;7.30;;;11.80;1.00;;;;;;5053312;28;20755;-66
2020/12/07 00:13:07;;;;;;;12.40;8.23;;;11.80;1.00;;;;;;5052880;28;20798;-57
2020/12/07 00:15:32;;;;;;;9.13;8.10;;;11.90;1.00;;;;;;5060179;28;20319;-56
2020/12/07 00:18:01;;;;;;;8.40;7.53;;;11.90;1.00;;;;;;5052057;28;20205;-56
2020/12/07 00:20:26;;;;;;;8.57;7.40;;;11.90;1.00;;;;;;5052882;28;20197;-66
2020/12/07 00:22:52;;;;;;;9.60;7.70;;;12.00;1.00;;;;;;5053619;28;20443;-66
2020/12/07 00:25:17;;;;;;;13.87;9.90;;;12.10;1.00;;;;;;5053726;28;20636;-56
2020/12/07 00:27:43;;;;;;;9.50;7.90;;;12.10;1.00;;;;;;5052658;28;20220;-56
2020/12/07 00:30:09;;;;;;;8.50;7.70;;;12.20;1.00;;;;;;5068777;28;20671;-56
2020/12/07 00:32:35;;;;;;;15.03;8.87;;;12.20;1.00;;;;;;5050095;28;20195;-66
2020/12/07 00:35:00;;;;;;;9.83;8.40;;;12.30;1.00;;;;;;5067979;28;20264;-64
2020/12/07 00:37:26;;;;;;;10.30;9.30;;;12.20;1.00;;;;;;5052385;28;20277;-57
2020/12/07 00:39:52;;;;;;;9.27;7.83;;;12.30;1.00;;;;;;5053581;28;20447;-56
2020/12/07 00:42:17;;;;;;;8.97;8.07;;;12.30;1.00;;;;;;5052865;28;20198;-57
2020/12/07 00:44:43;;;;;;;10.23;8.97;;;12.30;1.00;;;;;;5053227;28;20185;-56
2020/12/07 00:47:10;;;;;;;10.10;8.70;;;12.30;1.00;;;;;;5053027;28;20188;-56
2020/12/07 00:49:37;;;;;;;9.73;8.70;;;12.40;1.00;;;;;;5053448;28;20202;-66
2020/12/07 00:52:03;;;;;;;9.40;8.17;;;12.40;1.00;;;;;;5059677;28;20446;-67
2020/12/07 00:54:29;;;;;;;9.57;8.27;;;12.30;1.00;;;;;;5085634;28;20441;-56
2020/12/07 00:56:59;;;;;;;8.70;7.17;;;12.30;1.00;;;;;;5053433;28;20760;-66
2020/12/07 00:59:26;;;;;;;9.47;8.13;;;12.30;1.00;;;;;;5051536;28;20626;-66
2020/12/07 01:01:53;;;;;;;9.13;7.53;;;12.40;1.00;;;;;;5053520;28;20444;-67
2020/12/07 01:04:19;;;;;;;9.50;8.60;;;12.40;1.00;;;;;;5045234;28;20519;-67
2020/12/07 01:06:45;;;;;;;9.20;8.30;;;12.40;1.00;;;;;;5051291;28;20521;-67
2020/12/07 01:09:15;;;;;;;10.10;8.10;;;12.40;1.00;;;;;;5052975;28;20300;-67
2020/12/07 01:11:44;;;;;;;9.00;8.20;;;12.40;1.00;;;;;;5052829;28;20445;-67
2020/12/07 01:14:14;;;;;;;8.60;7.50;;;12.40;1.00;;;;;;5052497;28;20917;-66
2020/12/07 01:16:40;;;;;;;11.70;9.03;;;12.40;1.00;;;;;;5053004;28;20438;-56
2020/12/07 01:19:07;;;;;;;10.97;8.63;;;12.40;1.00;;;;;;5053141;28;20433;-68
2020/12/07 01:21:33;;;;;;;9.70;8.37;;;12.40;1.00;;;;;;5049236;28;20449;-56
2020/12/07 01:24:00;;;;;;;8.50;7.57;;;12.40;1.00;;;;;;5051381;28;20441;-68
2020/12/07 01:26:26;;;;;;;12.57;9.23;;;12.50;1.00;;;;;;5052732;28;20457;-66
2020/12/07 01:28:55;;;;;;;10.07;9.07;;;12.40;1.00;;;;;;5047091;28;20752;-57
2020/12/07 01:31:21;;;;;;;8.53;7.50;;;12.40;1.00;;;;;;5052247;28;20484;-67
2020/12/07 01:33:46;;;;;;;9.40;8.00;;;12.40;1.00;;;;;;5052824;28;20520;-56
2020/12/07 01:36:12;;;;;;;11.03;8.63;;;12.40;1.00;;;;;;5051731;28;20187;-67
2020/12/07 01:38:38;;;;;;;10.97;8.57;;;12.40;1.00;;;;;;5050574;28;20182;-67
2020/12/07 01:41:04;;;;;;;9.57;8.33;;;12.30;1.00;;;;;;5051364;28;20483;-68
2020/12/07 01:43:30;;;;;;;10.00;8.90;;;12.20;1.00;;;;;;5052866;28;20481;-66
2020/12/07 01:45:57;;;;;;;10.20;8.40;;;12.40;1.00;;;;;;5052866;28;20287;-66
2020/12/07 01:48:25;;;;;;;9.33;8.33;;;12.30;1.00;;;;;;5059374;28;20207;-57
2020/12/07 01:50:52;;;;;;;10.90;9.23;;;12.20;1.00;;;;;;5055604;28;20555;-58
2020/12/07 01:53:20;;;;;;;8.67;7.77;;;12.30;1.00;;;;;;5055565;28;20807;-57
2020/12/07 01:55:45;;;;;;;9.10;7.23;;;12.30;1.00;;;;;;5055928;28;20440;-57
2020/12/07 01:58:11;;;;;;;10.13;9.00;;;12.20;1.00;;;;;;5055921;28;20741;-66
2020/12/07 02:00:37;;;;;;;9.20;8.30;;;12.30;1.00;;;;;;5054830;28;20436;-57
2020/12/07 02:03:03;;;;;;;10.23;8.30;;;12.30;1.00;;;;;;5052764;28;20218;-56
2020/12/07 02:05:29;;;;;;;10.63;8.10;;;12.30;1.00;;;;;;5055241;28;20623;-64
2020/12/07 02:08:18;;;;;;;8.70;7.77;;;12.20;1.00;;;;;;5055083;28;20178;-64
2020/12/07 02:10:45;;;;;;;9.27;8.33;;;12.30;1.00;;;;;;5052517;28;20776;-55
2020/12/07 02:13:12;;;;;;;10.00;8.67;;;12.30;1.00;;;;;;5051625;28;20452;-59
2020/12/07 02:15:38;;;;;;;10.87;7.57;;;12.30;1.00;;;;;;5052527;28;20912;-65
2020/12/07 02:18:06;;;;;;;9.60;7.23;;;12.30;1.00;;;;;;5055688;28;20432;-65
2020/12/07 02:20:32;;;;;;;11.67;9.07;;;12.30;1.00;;;;;;5071864;28;20481;-66
2020/12/07 02:22:58;;;;;;;8.60;7.77;;;12.40;1.00;;;;;;5054774;28;20433;-66
2020/12/07 02:25:24;;;;;;;9.87;7.10;;;12.30;1.00;;;;;;5070041;28;20748;-57
2020/12/07 02:27:51;;;;;;;8.00;6.80;;;12.40;1.00;;;;;;5055633;28;20174;-57
2020/12/07 02:30:18;;;;;;;11.00;8.27;;;12.40;1.00;;;;;;5071022;28;20191;-57
2020/12/07 02:32:44;;;;;;;8.93;8.00;;;12.40;1.00;;;;;;5055462;28;20933;-67
2020/12/07 02:35:11;;;;;;;10.57;7.17;;;12.40;1.00;;;;;;5053900;28;20609;-57
2020/12/07 02:37:38;;;;;;;8.77;7.90;;;12.30;1.00;;;;;;5053928;28;20437;-67
2020/12/07 02:40:07;;;;;;;9.47;7.93;;;12.30;1.00;;;;;;5054997;28;20459;-57
2020/12/07 02:42:34;;;;;;;15.30;8.13;;;12.20;1.00;;;;;;5054744;28;20440;-57
2020/12/07 02:45:01;;;;;;;9.90;7.53;;;12.20;1.00;;;;;;5054821;28;20487;-57
2020/12/07 02:47:26;;;;;;;9.77;7.30;;;12.20;1.00;;;;;;5054558;28;20436;-57
2020/12/07 02:49:55;;;;;;;8.60;7.70;;;12.20;1.00;;;;;;5054699;28;20463;-57
2020/12/07 02:52:23;;;;;;;9.80;7.90;;;12.20;1.00;;;;;;5047043;28;20178;-67
2020/12/07 02:54:54;;;;;;;11.20;7.97;;;12.20;1.00;;;;;;5054398;28;20513;-59
2020/12/07 02:57:21;;;;;;;8.17;7.43;;;12.30;1.00;;;;;;5054465;28;20473;-56
2020/12/07 02:59:47;;;;;;;11.73;8.43;;;12.20;1.00;;;;;;5069255;28;20447;-67
2020/12/07 03:02:12;;;;;;;10.23;7.93;;;12.30;1.00;;;;;;5053507;28;20440;-67
2020/12/07 03:04:38;;;;;;;11.67;8.20;;;12.20;1.00;;;;;;5055112;28;20440;-67
2020/12/07 03:07:04;;;;;;;8.83;7.90;;;12.20;1.00;;;;;;5054191;28;20571;-57
2020/12/07 03:09:30;;;;;;;8.13;7.30;;;12.20;1.00;;;;;;5054486;28;20202;-66
2020/12/07 03:11:55;;;;;;;9.13;8.20;;;12.20;1.00;;;;;;5059915;28;20427;-57
2020/12/07 03:14:21;;;;;;;10.07;8.70;;;12.20;1.00;;;;;;5056210;28;20623;-66
2020/12/07 03:16:46;;;;;;;8.93;8.03;;;12.20;1.00;;;;;;5054590;28;20181;-67
2020/12/07 03:19:12;;;;;;;9.47;8.20;;;12.10;1.00;;;;;;5053654;28;20183;-68
2020/12/07 03:21:38;;;;;;;9.87;7.57;;;12.20;1.00;;;;;;5054252;28;20182;-67
2020/12/07 03:24:07;;;;;;;10.30;7.53;;;12.10;1.00;;;;;;5055188;28;20174;-67
2020/12/07 03:26:34;;;;;;;11.10;7.70;;;12.20;1.00;;;;;;5068739;28;20434;-57
2020/12/07 03:29:02;;;;;;;9.30;8.40;;;12.20;1.00;;;;;;5053134;28;20451;-56
2020/12/07 03:31:32;;;;;;;9.43;7.80;;;12.20;1.00;;;;;;5054181;28;20641;-56
2020/12/07 03:33:59;;;;;;;10.03;8.13;;;12.20;1.00;;;;;;5054577;28;20424;-56
2020/12/07 03:36:25;;;;;;;10.90;8.97;;;12.30;1.00;;;;;;5048714;28;20429;-56
2020/12/07 03:38:51;;;;;;;10.17;9.07;;;12.20;1.00;;;;;;5053970;28;20799;-67
2020/12/07 03:41:17;;;;;;;9.30;7.50;;;12.20;1.00;;;;;;5053105;28;20446;-57
2020/12/07 03:43:43;;;;;;;14.27;9.40;;;12.20;1.00;;;;;;5054331;28;20235;-57
2020/12/07 03:46:09;;;;;;;8.60;7.80;;;12.20;1.00;;;;;;5054399;28;20232;-66
2020/12/07 03:48:34;;;;;;;12.80;8.40;;;12.30;1.00;;;;;;5054195;28;20431;-68
2020/12/07 03:51:00;;;;;;;10.70;8.60;;;12.20;1.00;;;;;;5050471;28;20577;-56
2020/12/07 03:53:26;;;;;;;10.87;8.33;;;12.20;1.00;;;;;;5053731;28;20186;-56
2020/12/07 03:55:51;;;;;;;10.33;8.30;;;12.20;1.00;;;;;;5053827;28;20489;-66
2020/12/07 03:58:17;;;;;;;10.10;8.43;;;12.20;1.00;;;;;;5054263;28;20183;-66
2020/12/07 04:00:42;;;;;;;10.63;8.97;;;12.20;1.00;;;;;;5053717;28;20219;-55
2020/12/07 04:03:11;;;;;;;11.40;8.30;;;12.20;1.00;;;;;;5053949;28;20530;-64
2020/12/07 04:05:42;;;;;;;12.40;9.03;;;12.10;1.00;;;;;;5051924;28;20271;-56
2020/12/07 04:08:08;;;;;;;12.93;9.80;;;12.10;1.00;;;;;;5051154;28;20480;-56
2020/12/07 04:10:37;;;;;;;13.40;8.60;;;12.10;1.00;;;;;;5055184;28;20462;-58
2020/12/07 04:13:03;;;;;;;12.10;8.47;;;12.10;1.00;;;;;;5053837;28;20431;-65
2020/12/07 04:15:28;;;;;;;8.47;7.67;;;12.10;1.00;;;;;;5053862;28;20438;-56
2020/12/07 04:17:54;;;;;;;9.10;8.20;;;12.10;1.00;;;;;;5052164;28;20974;-66
2020/12/07 04:20:20;;;;;;;11.10;8.10;;;12.10;1.00;;;;;;5048026;28;20304;-67
2020/12/07 04:22:45;;;;;;;11.20;8.33;;;12.10;1.00;;;;;;5052785;28;20181;-67
2020/12/07 04:25:11;;;;;;;11.60;8.30;;;12.10;1.00;;;;;;5049896;28;20197;-56
2020/12/07 04:27:37;;;;;;;9.87;8.47;;;12.20;1.00;;;;;;5053322;28;20295;-68
2020/12/07 04:30:04;;;;;;;10.47;8.57;;;12.20;1.00;;;;;;5050238;28;20205;-67
2020/12/07 04:32:29;;;;;;;9.87;8.97;;;12.20;1.00;;;;;;5069412;28;20328;-67
2020/12/07 04:34:55;;;;;;;10.97;9.23;;;12.20;1.00;;;;;;5053176;28;20502;-55
2020/12/07 04:37:21;;;;;;;14.23;9.23;;;12.20;1.00;;;;;;5051079;28;20190;-56
2020/12/07 04:39:47;;;;;;;11.40;10.07;;;12.30;1.00;;;;;;5052529;28;20183;-55
2020/12/07 04:42:13;;;;;;;12.40;9.83;;;12.30;1.00;;;;;;5053276;28;20527;-66
2020/12/07 04:44:38;;;;;;;11.40;8.87;;;12.30;1.00;;;;;;5053209;28;20258;-67
2020/12/07 04:47:04;;;;;;;14.87;11.00;;;12.20;1.00;;;;;;5051754;28;20220;-67
2020/12/07 04:49:31;;;;;;;11.63;9.60;;;12.30;1.00;;;;;;5053699;28;20202;-67
2020/12/07 04:52:00;;;;;;;12.70;10.23;;;12.30;1.00;;;;;;5052039;28;20494;-67
2020/12/07 04:54:26;;;;;;;12.20;9.90;;;12.30;1.00;;;;;;5052388;28;20558;-56
2020/12/07 04:56:56;;;;;;;11.50;10.33;;;12.20;1.00;;;;;;5052543;28;20445;-67
2020/12/07 04:59:23;;;;;;;11.80;10.57;;;12.30;1.00;;;;;;5053291;28;20441;-56
2020/12/07 05:01:49;;;;;;;12.70;10.17;;;12.30;1.00;;;;;;5053485;28;20454;-57
2020/12/07 05:04:15;;;;;;;11.43;10.07;;;12.30;1.00;;;;;;5053126;28;20530;-67
2020/12/07 05:06:41;;;;;;;13.00;10.30;;;12.40;1.00;;;;;;5053192;28;20494;-67
2020/12/07 05:09:06;;;;;;;13.37;10.60;;;12.50;1.00;;;;;;5052924;28;20688;-66
2020/12/07 05:11:32;;;;;;;12.30;10.53;;;12.60;1.00;;;;;;5053230;28;20540;-67
2020/12/07 05:14:06;;;;;;;11.87;10.40;;;12.60;1.00;;;;;;5052700;28;20174;-58
2020/12/07 05:16:32;;;;;;;12.63;10.17;;;12.50;1.00;;;;;;5053321;28;20629;-66
2020/12/07 05:19:00;;;;;;;12.83;11.10;;;12.60;1.00;;;;;;5053111;28;20439;-67
2020/12/07 05:21:26;;;;;;;11.53;10.33;;;12.60;1.00;;;;;;5052549;28;20209;-58
2020/12/07 05:23:52;;;;;;;12.10;10.73;;;12.60;1.00;;;;;;5056673;28;20447;-67
2020/12/07 05:26:20;;;;;;;14.93;11.77;;;12.60;1.00;;;;;;5056325;28;20188;-56
2020/12/07 05:28:52;;;;;;;12.70;10.50;;;12.50;1.00;;;;;;5057102;28;20460;-56
2020/12/07 05:31:20;;;;;;;13.53;10.70;;;12.40;1.00;;;;;;5072461;28;20537;-56
2020/12/07 05:33:47;;;;;;;12.77;10.83;;;12.30;1.00;;;;;;5060913;28;20439;-57
2020/12/07 05:36:17;;;;;;;12.40;11.13;;;12.20;1.00;;;;;;5060866;28;20439;-71
2020/12/07 05:38:44;;;;;;;13.60;11.30;;;12.20;1.00;;;;;;5061486;28;20431;-56
2020/12/07 05:41:10;;;;;;;14.23;11.50;;;12.20;1.00;;;;;;5056133;28;20496;-56
2020/12/07 05:43:37;;;;;;;16.83;12.33;;;12.00;1.00;;;;;;5057320;28;20436;-56
2020/12/07 05:46:04;;;;;;;12.93;11.23;;;12.00;1.00;;;;;;5056763;28;20492;-73
2020/12/07 05:48:32;;;;;;;13.57;11.03;;;12.10;1.00;;;;;;5057145;28;20436;-71
2020/12/07 05:51:06;;;;;;;12.50;10.87;;;12.20;1.00;;;;;;5055452;28;20459;-72
2020/12/07 05:53:34;;;;;;;12.90;11.50;;;12.10;1.00;;;;;;5054464;28;20524;-58
2020/12/07 05:56:05;;;;;;;16.30;11.57;;;12.10;1.00;;;;;;5051183;28;20799;-56
2020/12/07 05:58:43;;;;;;;14.70;11.30;;;12.10;1.00;;;;;;5054623;28;20420;-73
2020/12/07 06:01:16;;;;;;;13.63;12.10;;;12.10;1.00;;;;;;5055966;28;20489;-71
2020/12/07 06:03:42;;;;;;;17.27;11.57;;;12.00;1.00;;;;;;5053614;28;20527;-70
2020/12/07 06:06:08;;;;;;;14.60;11.90;;;12.10;1.00;;;;;;5056617;28;20440;-69
2020/12/07 06:08:36;;;;;;;12.97;11.53;;;12.10;1.00;;;;;;5056077;28;20438;-68
2020/12/07 06:11:06;;;;;;;15.17;12.53;;;12.00;1.00;;;;;;5054615;28;20765;-56
2020/12/07 06:13:33;;;;;;;16.37;12.57;;;12.10;1.00;;;;;;5057241;28;20919;-73
2020/12/07 06:16:03;;;;;;;12.80;11.13;;;12.10;1.00;;;;;;5057590;28;20985;-75
2020/12/07 06:18:41;;;;;;;14.50;11.90;;;12.00;1.00;;;;;;5057503;28;20441;-74
2020/12/07 06:21:10;;;;;;;14.70;11.50;;;12.10;1.00;;;;;;5055559;28;20422;-72
2020/12/07 06:23:38;;;;;;;12.57;11.23;;;12.10;1.00;;;;;;5056196;28;20433;-74
2020/12/07 06:26:08;;;;;;;13.70;11.83;;;12.00;1.00;;;;;;5071096;28;20447;-57
2020/12/07 06:28:40;;;;;;;12.80;11.23;;;12.10;1.00;;;;;;5056941;28;20429;-72
2020/12/07 06:31:14;;;;;;;15.50;12.60;;;12.10;1.00;;;;;;5063853;28;20549;-71
2020/12/07 06:33:44;;;;;;;13.33;11.93;;;12.20;1.00;;;;;;5054987;28;20446;-74
2020/12/07 06:36:30;;;;;;;13.60;11.60;;;12.20;1.00;;;;;;5057162;28;20436;-72
2020/12/07 06:38:56;;;;;;;16.43;12.43;;;12.10;1.00;;;;;;5055307;28;20969;-56
2020/12/07 06:41:40;;;;;;;16.13;12.70;;;12.10;1.00;;;;;;5055074;28;20467;-72
2020/12/07 06:44:09;;;;;;;14.57;11.77;;;12.10;1.00;;;;;;5070761;28;20449;-56
2020/12/07 06:46:47;;;;;;;15.80;13.00;;;12.10;1.00;;;;;;5055716;28;20467;-71
2020/12/07 06:49:14;;;;;;;18.57;13.60;;;12.00;1.00;;;;;;5055112;28;20869;-57
2020/12/07 06:51:40;;;;;;;14.60;13.00;;;12.10;1.00;;;;;;5055357;28;20444;-56
2020/12/07 06:55:17;;;;;;;15.47;13.40;;;12.00;1.00;;;;;;5055151;28;20442;-58
2020/12/07 06:57:25;;;;;;;14.30;12.27;;;12.00;1.00;;;;;;5054611;28;20436;-56
2020/12/07 06:59:59;;;;;;;14.67;13.17;;;12.10;1.00;;;;;;5055655;28;20433;-73
2020/12/07 07:02:25;;;;;;;15.83;14.20;;;12.00;1.00;;;;;;5056168;28;20445;-56
2020/12/07 07:04:54;;;;;;;16.63;13.37;;;12.00;1.00;;;;;;5056204;28;20712;-72
2020/12/07 07:07:25;;;;;;;15.97;12.97;;;12.10;1.00;;;;;;5055322;28;20247;-56
2020/12/07 07:09:51;;;;;;;15.87;13.23;;;12.00;1.00;;;;;;5061278;28;20464;-73
2020/12/07 07:12:18;;;;;;;15.07;13.33;;;11.90;1.00;;;;;;5055230;28;20760;-72
2020/12/07 07:14:46;;;;;;;19.57;15.13;;;12.00;1.00;;;;;;5055523;28;20174;-73
2020/12/07 07:17:12;;;;;;;17.27;13.70;;;12.00;1.00;;;;;;5056942;28;20452;-75
2020/12/07 07:19:38;;;;;;;20.13;13.97;;;11.90;1.00;;;;;;5054610;28;20443;-73
2020/12/07 07:22:04;;;;;;;16.97;14.50;;;11.90;1.00;;;;;;5055367;28;20196;-56
2020/12/07 07:24:39;;;;;;;18.47;13.40;;;11.90;1.00;;;;;;5052551;28;20177;-56
2020/12/07 07:29:49;;;;;;;16.47;13.27;;;11.90;1.00;;;;;;5049957;28;20465;-74
2020/12/07 07:32:16;;;;;;;17.00;14.40;;;11.90;1.00;;;;;;5058057;28;20424;-72
2020/12/07 07:34:43;;;;;;;16.93;14.27;;;11.90;1.00;;;;;;5056925;28;20591;-56
2020/12/07 07:37:10;;;;;;;16.70;13.43;;;11.90;1.00;;;;;;5056548;28;20905;-58
2020/12/07 07:39:35;;;;;;;20.67;13.43;;;11.90;1.00;;;;;;5054202;28;20433;-73
2020/12/07 07:42:19;;;;;;;17.73;13.97;;;11.90;1.00;;;;;;5055199;28;20488;-73
2020/12/07 07:44:48;;;;;;;16.63;13.97;;;12.00;1.00;;;;;;5054066;28;20240;-73
2020/12/07 07:47:22;;;;;;;15.67;13.83;;;12.10;1.00;;;;;;5055166;28;20422;-57
2020/12/07 08:17:28;;;;;;;16.67;13.47;;;12.00;1.00;;;;;;5064349;28;20411;-75
2020/12/07 08:20:09;;;;;;;17.53;14.30;;;12.00;1.00;;;;;;5057365;28;20523;-56
2020/12/07 08:22:35;;;;;;;16.47;14.30;;;12.00;1.00;;;;;;5057390;28;20171;-72
2020/12/07 08:25:02;;;;;;;18.00;14.70;;;12.10;1.00;;;;;;5060169;28;20532;-73
2020/12/07 08:27:36;;;;;;;18.60;15.40;;;12.00;1.00;;;;;;5061436;28;20221;-56
2020/12/07 08:30:04;;;;;;;18.13;15.00;;;12.10;1.00;;;;;;5054498;28;20457;-56
2020/12/07 08:32:30;;;;;;;16.97;13.70;;;12.00;1.00;;;;;;5055427;28;20978;-74
2020/12/07 08:34:56;;;;;;;15.97;13.77;;;11.90;1.00;;;;;;5055155;28;20510;-74
2020/12/07 08:37:21;;;;;;;17.70;12.90;;;12.00;1.00;;;;;;5056957;28;20510;-56
2020/12/07 08:39:47;;;;;;;18.63;13.70;;;12.00;1.00;;;;;;5056136;28;20562;-56
2020/12/07 08:42:13;;;;;;;14.73;12.97;;;12.00;1.00;;;;;;5053969;28;20657;-56
2020/12/07 08:44:38;;;;;;;14.87;13.33;;;12.00;1.00;;;;;;5053073;28;20179;-56
2020/12/07 08:47:08;;;;;;;15.97;13.87;;;12.00;1.00;;;;;;5053822;28;20289;-74
2020/12/07 08:49:35;;;;;;;16.03;13.60;;;11.90;1.00;;;;;;5053355;28;20201;-56
2020/12/07 08:52:01;;;;;;;15.77;13.03;;;11.80;1.00;;;;;;5053219;28;20456;-56
2020/12/07 08:54:26;;;;;;;16.00;13.30;;;11.80;1.00;;;;;;5053658;28;20935;-56
2020/12/07 08:56:52;;;;;;;17.17;14.30;;;11.90;1.00;;;;;;5055973;28;20180;-55
2020/12/07 08:59:17;;;;;;;15.97;13.67;;;11.80;1.00;;;;;;5057940;28;20179;-56
2020/12/07 09:01:43;;;;;;;17.27;15.33;;;11.80;1.00;;;;;;5058690;28;20179;-72
2020/12/07 09:04:11;;;;;;;19.90;17.30;;;11.90;1.00;;;;;;5075642;28;20179;-72
2020/12/07 09:06:41;;;;;;;17.67;14.27;;;11.90;1.00;;;;;;5059703;28;20171;-74
2020/12/07 09:09:07;;;;;;;17.23;13.87;;;12.00;1.00;;;;;;5056349;28;20485;-56
2020/12/07 09:11:34;;;;;;;15.60;14.00;;;11.90;1.00;;;;;;5061313;28;20431;-75
2020/12/07 09:14:00;;;;;;;15.23;13.63;;;11.80;1.00;;;;;;5058415;28;20503;-74
2020/12/07 09:16:26;;;;;;;16.07;13.70;;;11.90;1.00;;;;;;5058022;28;20413;-74
2020/12/07 09:18:52;;;;;;;16.50;14.50;;;11.90;1.00;;;;;;5057814;28;20435;-75
2020/12/07 09:21:18;;;;;;;16.43;14.50;;;11.80;1.00;;;;;;5057434;28;20552;-73
2020/12/07 09:23:43;;;;;;;16.07;13.93;;;11.90;1.00;;;;;;5057379;28;20220;-73
2020/12/07 09:26:09;;;;;;;17.20;14.60;;;11.90;1.00;;;;;;5056644;28;20458;-73
2020/12/07 09:28:36;;;;;;;18.57;15.27;;;11.80;1.00;;;;;;5057557;28;20174;-74
2020/12/07 09:31:02;;;;;;;15.73;13.97;;;11.80;1.00;;;;;;5057416;28;20202;-73
2020/12/07 09:33:27;;;;;;;15.90;13.93;;;11.90;1.00;;;;;;5057598;28;20404;-73
2020/12/07 09:35:53;;;;;;;18.20;14.23;;;11.90;1.00;;;;;;5073078;28;20418;-56
2020/12/07 09:38:19;;;;;;;21.37;14.63;;;11.90;1.00;;;;;;5057109;28;20214;-74
2020/12/07 09:40:45;;;;;;;16.00;14.40;;;11.90;1.00;;;;;;5057377;28;20265;-73
2020/12/07 09:43:11;;;;;;;15.17;13.57;;;11.90;1.00;;;;;;5057389;28;20751;-73
2020/12/07 09:45:36;;;;;;;16.63;14.83;;;11.90;1.00;;;;;;5056999;28;20964;-58
2020/12/07 09:48:03;;;;;;;16.47;14.03;;;12.00;1.00;;;;;;5057000;28;20257;-56
2020/12/07 09:50:28;;;;;;;18.17;14.83;;;12.00;1.00;;;;;;5057173;28;20211;-73
2020/12/07 09:52:54;;;;;;;16.40;14.10;;;12.10;1.00;;;;;;5057089;28;20440;-73
2020/12/07 09:55:22;;;;;;;14.20;12.70;;;12.00;1.00;;;;;;5057276;28;20501;-74
2020/12/07 09:57:48;;;;;;;19.33;15.47;;;12.00;1.00;;;;;;5072066;28;20493;-74
2020/12/07 10:00:14;;;;;;;17.07;14.70;;;12.10;1.00;;;;;;5057381;28;20747;-72
2020/12/07 10:02:39;;;;;;;16.70;14.67;;;12.00;1.00;;;;;;5057207;28;20637;-74
2020/12/07 10:05:05;;;;;;;16.17;14.23;;;12.00;1.00;;;;;;5057035;28;20560;-73
2020/12/07 10:07:31;;;;;;;17.63;15.73;;;12.00;1.00;;;;;;5056401;28;20226;-73
2020/12/07 10:09:57;;;;;;;17.60;15.70;;;12.00;1.00;;;;;;5056382;28;20466;-75
2020/12/07 10:12:23;;;;;;;18.00;14.53;;;12.00;1.00;;;;;;5057082;28;20517;-57
2020/12/07 10:14:49;;;;;;;25.97;15.60;;;12.10;1.00;;;;;;5057050;28;20499;-73
2020/12/07 10:17:14;;;;;;;18.77;16.23;;;12.10;1.00;;;;;;5056045;28;20820;-62
2020/12/07 10:19:40;;;;;;;15.60;13.33;;;12.10;1.00;;;;;;5056511;28;20628;-56
2020/12/07 10:22:06;;;;;;;16.63;14.67;;;12.00;1.00;;;;;;5072112;28;20181;-56
2020/12/07 10:24:32;;;;;;;19.47;16.63;;;11.90;1.00;;;;;;5056453;28;20194;-74
2020/12/07 10:26:58;;;;;;;18.90;16.10;;;12.10;1.00;;;;;;5056464;28;20253;-56
2020/12/07 10:29:24;;;;;;;20.20;15.33;;;12.00;1.00;;;;;;5056335;28;20927;-73
2020/12/07 10:31:50;;;;;;;16.37;14.67;;;12.00;1.00;;;;;;5056365;28;20434;-56
2020/12/07 10:34:15;;;;;;;19.87;16.70;;;11.80;1.00;;;;;;5056848;28;20627;-74
2020/12/07 10:36:48;;;;;;;17.33;15.17;;;11.90;1.00;;;;;;5072055;28;20187;-56
2020/12/07 10:39:14;;;;;;;17.40;15.50;;;11.90;1.00;;;;;;5056035;28;20577;-56
2020/12/07 10:41:40;;;;;;;18.07;14.53;;;11.80;1.00;;;;;;5055379;28;20428;-56
2020/12/07 10:44:05;;;;;;;21.40;17.23;;;11.80;1.00;;;;;;5056881;28;20426;-72
2020/12/07 10:46:31;;;;;;;18.00;15.53;;;11.80;1.00;;;;;;5058724;28;20215;-74
2020/12/07 10:48:57;;;;;;;17.43;15.63;;;11.80;1.00;;;;;;5071933;28;20183;-56
2020/12/07 10:51:22;;;;;;;19.57;17.43;;;11.90;1.00;;;;;;5055883;28;20635;-56
2020/12/07 10:53:48;;;;;;;19.13;15.40;;;12.00;1.00;;;;;;5055944;28;20195;-55
2020/12/07 10:56:15;;;;;;;20.53;16.67;;;12.00;1.00;;;;;;5055346;28;20775;-73
2020/12/07 10:58:43;;;;;;;17.50;15.70;;;12.10;1.00;;;;;;5055855;28;20520;-56
2020/12/07 11:01:10;;;;;;;16.53;14.20;;;12.10;1.00;;;;;;5055986;28;20989;-74
2020/12/07 11:03:36;;;;;;;16.40;11.40;;;12.10;1.00;;;;;;5056162;28;20886;-74
2020/12/07 11:06:11;;;;;;;11.33;9.93;;;12.10;1.00;;;;;;5055905;28;20428;-74
2020/12/07 11:08:38;;;;;;;14.00;11.57;;;12.20;1.00;;;;;;5055198;28;20170;-74
2020/12/07 11:11:07;;;;;;;13.73;11.30;;;12.00;1.00;;;;;;5055531;28;20452;-73
2020/12/07 11:13:32;;;;;;;15.57;12.27;;;11.90;1.00;;;;;;5055913;28;20412;-74
2020/12/07 11:16:04;;;;;;;13.40;11.40;;;11.90;1.00;;;;;;5056426;28;20422;-56
2020/12/07 11:18:35;;;;;;;12.10;10.83;;;11.80;1.00;;;;;;5055923;28;20587;-74
2020/12/07 11:21:01;;;;;;;13.90;12.10;;;11.60;1.00;;;;;;5055158;28;20480;-56
2020/12/07 11:23:26;;;;;;;16.00;12.00;;;11.60;1.00;;;;;;5055333;28;20886;-73
2020/12/07 11:25:52;;;;;;;13.00;10.57;;;11.60;1.00;;;;;;5071348;28;20741;-73
2020/12/07 11:28:17;;;;;;;13.43;10.27;;;11.70;1.00;;;;;;5072143;28;20204;-74
2020/12/07 11:30:43;;;;;;;11.57;10.17;;;11.80;1.00;;;;;;5055478;28;20525;-73
2020/12/07 11:33:09;;;;;;;11.33;10.13;;;11.70;1.00;;;;;;5070856;28;20232;-74
2020/12/07 11:35:34;;;;;;;10.37;8.63;;;11.70;1.00;;;;;;5055214;28;20615;-74
2020/12/07 11:38:04;;;;;;;16.77;9.70;;;11.70;1.00;;;;;;5055225;28;20171;-76
2020/12/07 11:40:51;;;;;;;10.73;9.60;;;11.70;1.00;;;;;;5054229;28;20239;-73
2020/12/07 11:43:18;;;;;;;12.10;10.10;;;11.70;1.00;;;;;;5055269;28;20435;-74
2020/12/07 11:45:44;;;;;;;10.20;9.00;;;11.80;1.00;;;;;;5055061;28;20469;-74
2020/12/07 11:48:10;;;;;;;8.73;7.80;;;11.90;1.00;;;;;;5055595;28;20420;-73
2020/12/07 11:50:36;;;;;;;10.47;9.13;;;12.00;1.00;;;;;;5055792;28;20563;-73
2020/12/07 11:53:03;;;;;;;8.43;7.63;;;12.00;1.00;;;;;;5055073;28;20430;-73
2020/12/07 11:55:29;;;;;;;10.43;8.33;;;12.00;1.00;;;;;;5057480;28;20419;-73
2020/12/07 11:57:55;;;;;;;8.23;7.43;;;12.00;1.00;;;;;;5054888;28;20426;-74
2020/12/07 12:00:21;;;;;;;32.17;8.23;;;12.00;1.00;;;;;;5054851;28;20415;-74
2020/12/07 12:02:46;;;;;;;7.70;6.10;;;12.10;1.00;;;;;;5054654;28;20184;-74
2020/12/07 12:05:12;;;;;;;7.43;5.60;;;12.10;1.00;;;;;;5054530;28;20185;-74
2020/12/07 12:07:37;;;;;;;10.40;6.63;;;12.20;1.00;;;;;;5054765;28;20256;-74
2020/12/07 12:10:03;;;;;;;7.43;6.10;;;12.20;1.00;;;;;;5054338;28;20194;-72
2020/12/07 12:12:29;;;;;;;6.37;5.60;;;12.30;1.00;;;;;;5054293;28;20255;-75
2020/12/07 12:14:54;;;;;;;9.03;5.10;;;12.20;1.00;;;;;;5054373;28;20321;-73
2020/12/07 12:17:20;;;;;;;4.80;4.40;;;12.40;1.00;;;;;;5054416;28;20178;-74
2020/12/07 12:19:46;;;;;;;6.50;4.30;;;12.50;1.00;;;;;;5054526;28;20178;-74
2020/12/07 12:22:11;;;;;;;7.30;4.77;;;12.60;1.00;;;;;;5055347;28;20583;-74
2020/12/07 12:24:37;;;;;;;6.70;4.60;;;12.60;1.00;;;;;;5054610;28;20179;-75
2020/12/07 12:27:02;;;;;;;5.50;4.53;;;12.60;1.00;;;;;;5056137;28;20776;-73
2020/12/07 12:29:28;;;;;;;5.50;4.70;;;11.80;1.00;;;;;;5054388;28;20262;-74
2020/12/07 12:31:54;;;;;;;6.37;5.17;;;12.30;1.00;;;;;;5053856;28;20180;-75
2020/12/07 12:34:19;;;;;;;7.47;4.83;;;12.10;1.00;;;;;;5054212;28;20201;-74
2020/12/07 12:36:48;;;;;;;4.70;4.20;;;11.90;1.00;;;;;;5054461;28;20287;-73
2020/12/07 12:39:14;;;;;;;9.30;5.30;;;11.90;1.00;;;;;;5053704;28;20702;-75
2020/12/07 12:41:39;;;;;;;6.70;5.33;;;11.80;1.00;;;;;;5054260;28;20469;-74
2020/12/07 12:44:08;;;;;;;6.90;5.23;;;13.80;1.00;;;;;;5054076;28;20443;-75
2020/12/07 12:46:35;;;;;;;5.17;4.47;;;11.80;1.00;;;;;;5054234;28;20291;-74
2020/12/07 12:49:00;;;;;;;11.23;6.77;;;11.70;1.00;;;;;;5054367;28;20882;-75
2020/12/07 12:51:26;;;;;;;8.40;5.23;;;11.60;1.00;;;;;;5053867;28;20459;-74
2020/12/07 12:53:51;;;;;;;5.10;4.60;;;11.80;1.00;;;;;;5053592;28;20174;-75
2020/12/07 12:56:17;;;;;;;7.30;4.70;;;11.80;1.00;;;;;;5054379;28;20178;-75
2020/12/07 12:58:43;;;;;;;4.40;3.83;;;11.90;1.00;;;;;;5054699;28;20209;-74
2020/12/07 13:01:08;;;;;;;8.83;5.30;;;11.90;1.00;;;;;;5055657;28;20179;-74
2020/12/07 13:03:35;;;;;;;6.60;4.03;;;12.00;1.00;;;;;;5061658;28;20266;-75
2020/12/07 13:06:00;;;;;;;5.20;4.70;;;12.10;1.00;;;;;;5062749;28;20179;-73
2020/12/07 13:08:26;;;;;;;6.53;4.83;;;12.00;1.00;;;;;;5062328;28;20467;-74
2020/12/07 13:10:52;;;;;;;6.83;4.50;;;12.00;1.00;;;;;;5062635;28;20202;-74
2020/12/07 13:13:18;;;;;;;7.77;5.57;;;12.00;1.00;;;;;;5063820;28;20235;-74
2020/12/07 13:16:18;;;;;;;6.07;4.97;;;12.00;1.00;;;;;;5067895;28;20198;-73